Terminal Aerodrome Forecast
Issued by NWS Tuscon, AZ

Home | Current Version | Previous Version | Text Only | Print | Product List | Glossary On
Versions: 1 2 3 4 5 6 7 8 9 10 11 12 13 14
000
FTUS45 KTWC 302200 AAA
TAFTUS
TAF AMD
KTUS 302220Z 3022/3118 11010KT 4SM -SHRA BR SCT020 BKN035 OVC045
      TEMPO 3022/3024 2SM SHRA BR SCT010 BKN020
     FM310200 10008KT P6SM -SHRA SCT035 OVC045
     FM310700 14008KT P6SM VCSH SCT045 BKN060 OVC080=

USA.gov is the U.S. government's official web portal to all federal, state and local government web resources and services.